Terminal Aerodrome Forecast
Issued by NWS

Home | Current Version | Previous Version | Text Only | Print | Product List | Glossary On
Versions: 1 2 3 4 5 6 7 8 9 10 11 12 13
000
FTUS43 KMQT 012327
TAFIWD
TAF
KIWD 012327Z 0200/0224 27013G18KT P6SM SCT025
     FM020200 27011G16KT 4SM -SHSN OVC025
      TEMPO 0202/0204 2SM -SHSN BKN015
     FM020700 27010KT P6SM VCSH BKN030
     FM021600 23007KT P6SM SCT030
      AMD LTD TO CLD VIS AND WIND=

USA.gov is the U.S. government's official web portal to all federal, state and local government web resources and services.